Time;durP1;ratioP1;P1;durP2;ratioP2;P2;SDS_P1;SDS_P2;PMS_P1;PMS_P2;Temp;Humidity;BMP_temperature;BMP_pressure;BME280_temperature;BME280_humidity;BME280_pressure;Samples;Min_cycle;Max_cycle;Signal;HPM_P1;HPM_P2
2023/03/31 00:01:44;;;;;;;10.00;8.10;;;;;;;16.58;29.72;99068.80;104247;1270;60671;-62
2023/03/31 00:04:13;;;;;;;10.30;8.00;;;;;;;16.62;29.62;99070.25;104309;1266;60889;-62
2023/03/31 00:06:41;;;;;;;13.30;8.70;;;;;;;16.61;29.69;99067.83;104321;1254;73437;-62
2023/03/31 00:09:12;;;;;;;12.10;8.50;;;;;;;16.60;30.04;99065.99;104260;1263;70421;-62
2023/03/31 00:11:40;;;;;;;12.00;8.60;;;;;;;16.55;29.94;99064.39;104395;1259;74274;-63
2023/03/31 00:14:09;;;;;;;14.80;8.80;;;;;;;16.50;30.22;99056.80;104253;1258;60659;-63
2023/03/31 00:16:39;;;;;;;9.00;7.90;;;;;;;16.50;29.99;99055.42;104247;1267;60800;-63
2023/03/31 00:19:11;;;;;;;9.50;7.60;;;;;;;16.48;29.83;99060.13;104275;1270;73655;-63
2023/03/31 00:21:41;;;;;;;7.60;6.20;;;;;;;16.50;29.81;99063.52;104298;1256;71171;-63
2023/03/31 00:24:10;;;;;;;10.00;6.20;;;;;;;16.41;30.21;99058.21;104272;1270;73399;-63
2023/03/31 00:26:43;;;;;;;7.50;6.00;;;;;;;16.52;29.97;99053.51;104234;1273;60855;-63
2023/03/31 00:29:13;;;;;;;7.70;5.50;;;;;;;16.50;30.22;99048.50;104297;1254;60779;-63
2023/03/31 00:31:41;;;;;;;8.00;5.80;;;;;;;16.54;29.56;99053.81;104176;1261;74366;-63
2023/03/31 00:34:10;;;;;;;7.70;5.90;;;;;;;16.60;30.00;99052.02;104340;1259;70088;-62
2023/03/31 00:36:46;;;;;;;7.40;5.50;;;;;;;16.61;29.47;99048.60;104222;1264;74196;-63
2023/03/31 00:39:17;;;;;;;6.00;5.40;;;;;;;16.65;29.93;99044.86;104310;1267;60896;-62
2023/03/31 00:41:46;;;;;;;7.10;5.50;;;;;;;16.68;29.82;99039.00;104204;1256;60860;-61
2023/03/31 00:44:23;;;;;;;7.60;6.20;;;;;;;16.66;29.79;99031.16;104387;1260;74096;-62
2023/03/31 00:47:00;;;;;;;;;;;;;;;16.69;29.98;99031.70;104267;1257;70549;-61
2023/03/31 00:49:40;;;;;;;5.30;4.10;;;;;;;16.74;29.90;99028.27;104380;1256;72814;-61
2023/03/31 00:52:13;;;;;;;5.50;4.70;;;;;;;16.59;30.10;99020.73;104295;1258;60885;-61
2023/03/31 00:54:41;;;;;;;6.30;4.70;;;;;;;16.61;29.82;99022.20;104332;1254;60478;-63
2023/03/31 00:57:10;;;;;;;5.60;4.90;;;;;;;16.42;30.16;99025.58;104229;1259;73987;-62
2023/03/31 00:59:41;;;;;;;6.70;5.40;;;;;;;16.30;30.12;99022.49;104386;1258;70943;-62
2023/03/31 01:02:10;;;;;;;6.30;4.50;;;;;;;16.43;30.29;99018.33;104311;1260;74023;-61
2023/03/31 01:04:43;;;;;;;6.10;4.50;;;;;;;16.50;30.25;99010.11;104220;1271;61101;-62
2023/03/31 01:07:21;;;;;;;7.30;4.80;;;;;;;15.95;31.08;99013.02;104434;1257;61268;-62
2023/03/31 01:09:50;;;;;;;6.80;4.20;;;;;;;15.68;31.95;99014.48;104434;1254;74423;-61
2023/03/31 01:12:18;;;;;;;5.00;4.40;;;;;;;15.63;31.68;99010.27;104204;1267;70367;-60
2023/03/31 01:14:48;;;;;;;5.20;4.70;;;;;;;15.93;31.51;99001.56;104345;1266;74150;-61
2023/03/31 01:17:17;;;;;;;7.00;4.50;;;;;;;15.74;31.73;99000.31;104096;1272;60968;-61
2023/03/31 01:19:50;;;;;;;5.30;4.40;;;;;;;15.99;31.56;98993.52;104255;1267;60869;-61
2023/03/31 01:22:44;;;;;;;5.50;4.20;;;;;;;16.22;31.13;98993.15;104178;1263;74611;-61
2023/03/31 01:25:49;;;;;;;5.20;4.00;;;;;;;16.42;30.93;98989.66;104210;1257;71448;-62
2023/03/31 01:28:36;;;;;;;5.10;3.60;;;;;;;16.48;30.96;98986.19;104251;1259;73948;-61
2023/03/31 01:31:23;;;;;;;4.80;4.20;;;;;;;16.42;30.72;98980.71;104256;1261;61785;-62
2023/03/31 01:34:11;;;;;;;5.10;4.20;;;;;;;16.46;30.62;98978.64;104230;1267;61729;-62
2023/03/31 01:36:46;;;;;;;;;;;;;;;16.43;30.55;98980.05;104318;1256;74745;-62
2023/03/31 01:39:44;;;;;;;4.10;3.70;;;;;;;16.52;30.39;98976.04;104335;1258;71080;-63
2023/03/31 01:42:24;;;;;;;3.70;3.40;;;;;;;16.45;30.97;98974.28;103884;1263;73898;-62
2023/03/31 01:45:07;;;;;;;4.60;4.20;;;;;;;16.34;30.97;98972.44;104434;1256;61617;-62
2023/03/31 01:47:45;;;;;;;4.20;3.90;;;;;;;15.79;32.19;98972.23;104382;1273;61699;-62
2023/03/31 01:50:26;;;;;;;5.70;4.50;;;;;;;15.71;32.23;98969.04;104324;1257;75909;-62
2023/03/31 01:53:12;;;;;;;5.00;3.80;;;;;;;15.49;32.56;98965.89;104268;1261;69898;-61
2023/03/31 01:55:58;;;;;;;5.30;4.20;;;;;;;15.55;32.85;98962.80;104316;1256;73063;-61
2023/03/31 01:58:34;;;;;;;4.70;3.90;;;;;;;16.14;32.09;98959.70;104405;1256;61592;-63
2023/03/31 02:01:07;;;;;;;6.70;4.70;;;;;;;16.46;31.59;98956.87;104289;1269;60483;-62
2023/03/31 02:03:42;;;;;;;4.50;4.10;;;;;;;16.54;31.65;98955.52;104225;1257;75494;-62
2023/03/31 02:06:14;;;;;;;6.10;4.50;;;;;;;16.31;31.67;98953.02;104355;1269;71086;-61
2023/03/31 02:08:45;;;;;;;5.70;4.80;;;;;;;16.39;31.59;98945.51;104182;1258;73061;-62
2023/03/31 02:11:14;;;;;;;7.20;5.00;;;;;;;16.53;31.78;98942.15;104286;1261;61703;-62
2023/03/31 02:13:46;;;;;;;5.80;4.50;;;;;;;16.30;31.89;98936.67;104311;1269;61773;-62
2023/03/31 02:16:18;;;;;;;5.80;4.90;;;;;;;16.27;32.03;98932.83;104223;1261;75492;-62
2023/03/31 02:18:47;;;;;;;6.40;5.00;;;;;;;16.30;31.95;98926.04;104377;1269;72122;-62
2023/03/31 02:21:15;;;;;;;8.70;6.00;;;;;;;16.28;32.38;98912.60;104290;1258;75187;-62
2023/03/31 02:23:44;;;;;;;6.70;5.20;;;;;;;16.29;31.96;98912.02;104281;1267;60434;-62
2023/03/31 02:26:19;;;;;;;6.10;5.30;;;;;;;16.30;32.44;98906.64;104188;1256;62490;-62
2023/03/31 02:28:49;;;;;;;7.20;5.40;;;;;;;16.27;32.59;98909.52;104307;1265;76359;-62
2023/03/31 02:31:22;;;;;;;6.70;5.00;;;;;;;16.25;32.37;98914.63;104318;1261;72798;-62
2023/03/31 02:33:52;;;;;;;8.20;5.00;;;;;;;16.23;32.74;98912.13;104184;1260;75193;-62
2023/03/31 02:36:21;;;;;;;6.30;5.30;;;;;;;16.19;32.38;98909.28;104282;1266;61692;-62
2023/03/31 02:39:01;;;;;;;5.20;4.70;;;;;;;16.18;32.87;98905.27;104359;1256;63105;-62
2023/03/31 02:41:31;;;;;;;6.00;4.60;;;;;;;16.26;32.61;98898.23;104319;1252;76164;-62
2023/03/31 02:44:00;;;;;;;6.70;4.80;;;;;;;16.23;32.45;98900.98;104443;1257;72188;-62
2023/03/31 02:46:28;;;;;;;5.30;4.10;;;;;;;16.19;32.80;98899.55;104255;1275;75578;-62
2023/03/31 02:49:00;;;;;;;5.60;4.30;;;;;;;16.19;32.48;98897.04;104250;1255;61687;-62
2023/03/31 02:51:33;;;;;;;5.30;4.20;;;;;;;16.21;32.52;98899.58;104359;1264;61178;-62
2023/03/31 02:54:04;;;;;;;6.30;4.10;;;;;;;16.34;32.35;98896.56;104330;1251;77101;-62
2023/03/31 02:57:07;;;;;;;4.90;4.00;;;;;;;16.41;32.09;98895.14;104266;1252;72174;-62
2023/03/31 02:59:46;;;;;;;4.20;3.80;;;;;;;16.44;32.55;98891.02;104367;1252;74892;-62
2023/03/31 03:02:28;;;;;;;4.60;3.80;;;;;;;16.34;32.24;98889.69;104380;1252;61825;-62
2023/03/31 03:05:18;;;;;;;6.10;4.50;;;;;;;16.35;32.56;98886.21;104416;1262;62443;-62
2023/03/31 03:08:08;;;;;;;4.50;3.90;;;;;;;16.37;32.61;98894.43;108141;1253;75777;-63
2023/03/31 03:10:53;;;;;;;4.70;4.00;;;;;;;16.18;32.95;98895.20;108108;1253;73098;-61
2023/03/31 03:13:45;;;;;;;6.70;3.90;;;;;;;16.14;33.28;98891.98;108165;1254;75160;-61
2023/03/31 03:16:17;;;;;;;5.10;3.60;;;;;;;16.19;33.34;98890.70;104358;1262;61772;-62
2023/03/31 03:19:00;;;;;;;9.10;4.30;;;;;;;16.07;33.14;98887.56;104306;1262;62044;-63
2023/03/31 03:21:31;;;;;;;6.20;4.30;;;;;;;16.08;33.32;98888.02;104244;1258;76377;-62
2023/03/31 03:24:00;;;;;;;4.70;3.90;;;;;;;16.06;33.22;98880.52;104403;1269;72170;-62
2023/03/31 03:26:28;;;;;;;6.10;4.40;;;;;;;16.05;33.11;98883.29;104276;1270;75199;-62
2023/03/31 03:28:57;;;;;;;4.80;4.30;;;;;;;16.03;33.48;98886.44;104326;1252;61609;-62
2023/03/31 03:31:25;;;;;;;4.90;4.40;;;;;;;16.03;33.08;98887.13;104249;1275;62174;-62
2023/03/31 03:33:55;;;;;;;5.90;4.40;;;;;;;16.00;33.22;98889.52;104307;1266;76352;-62
2023/03/31 03:36:24;;;;;;;6.20;4.30;;;;;;;15.99;33.25;98888.70;104358;1256;72180;-62
2023/03/31 03:38:55;;;;;;;7.60;4.70;;;;;;;15.50;34.08;98888.14;104307;1270;75145;-63
2023/03/31 03:41:23;;;;;;;4.90;4.20;;;;;;;15.85;33.79;98880.02;104287;1264;62035;-62
2023/03/31 03:43:52;;;;;;;6.90;4.10;;;;;;;16.00;33.40;98880.69;104446;1270;62474;-63
2023/03/31 03:46:20;;;;;;;5.30;4.20;;;;;;;15.87;33.42;98877.11;104369;1258;76455;-62
2023/03/31 03:48:52;;;;;;;6.50;4.80;;;;;;;15.84;33.82;98870.97;104307;1257;72853;-63
2023/03/31 03:51:21;;;;;;;7.50;5.00;;;;;;;15.90;33.66;98873.27;104371;1258;75949;-63
2023/03/31 03:53:49;;;;;;;5.70;4.60;;;;;;;16.00;33.59;98870.25;104458;1261;61588;-62
2023/03/31 03:56:17;;;;;;;6.70;5.20;;;;;;;16.05;33.82;98873.90;104374;1269;62078;-63
2023/03/31 03:58:46;;;;;;;6.00;4.80;;;;;;;16.08;33.58;98872.08;104302;1259;76290;-63
2023/03/31 04:01:18;;;;;;;5.50;5.00;;;;;;;16.28;33.44;98872.29;104288;1271;72125;-62
2023/03/31 04:03:47;;;;;;;6.30;4.80;;;;;;;16.29;33.16;98867.27;104280;1259;74237;-62
2023/03/31 04:06:16;;;;;;;6.10;5.00;;;;;;;16.28;33.40;98867.01;104534;1269;62165;-63
2023/03/31 04:08:44;;;;;;;6.80;5.20;;;;;;;16.33;33.02;98861.29;104291;1273;62440;-63
2023/03/31 04:11:16;;;;;;;6.70;4.80;;;;;;;16.38;33.03;98861.23;104335;1258;76422;-63
2023/03/31 04:13:46;;;;;;;5.60;5.00;;;;;;;16.30;33.15;98859.41;104314;1253;72230;-63
2023/03/31 04:16:15;;;;;;;6.60;5.80;;;;;;;16.28;33.20;98853.20;104207;1264;74782;-63
2023/03/31 04:18:44;;;;;;;6.40;4.80;;;;;;;16.34;33.22;98853.79;104181;1264;61675;-63
2023/03/31 04:21:21;;;;;;;6.00;5.10;;;;;;;16.36;33.29;98847.30;104341;1255;62977;-63
2023/03/31 04:23:57;;;;;;;7.50;4.70;;;;;;;16.47;33.11;98843.04;104286;1252;75223;-63
2023/03/31 04:26:37;;;;;;;5.40;4.90;;;;;;;16.46;32.94;98846.48;104252;1252;70827;-63
2023/03/31 04:29:06;;;;;;;6.40;5.20;;;;;;;16.51;33.15;98844.17;104230;1251;75188;-63
2023/03/31 04:31:37;;;;;;;6.10;4.50;;;;;;;16.43;32.95;98842.12;104285;1264;62250;-63
2023/03/31 04:34:11;;;;;;;5.40;4.80;;;;;;;16.40;33.14;98843.80;104210;1275;61400;-63
2023/03/31 04:36:45;;;;;;;6.20;4.80;;;;;;;16.45;33.30;98839.11;104329;1267;76441;-64
2023/03/31 04:39:16;;;;;;;8.40;4.80;;;;;;;16.46;33.21;98840.79;104295;1253;71887;-63
2023/03/31 04:41:48;;;;;;;5.00;4.20;;;;;;;16.48;33.34;98839.77;104199;1254;75232;-63
2023/03/31 04:44:16;;;;;;;5.20;4.60;;;;;;;16.49;33.87;98835.42;104273;1264;63073;-63
2023/03/31 04:46:45;;;;;;;5.70;5.00;;;;;;;16.55;34.34;98833.55;104308;1267;62094;-63
2023/03/31 04:49:15;;;;;;;7.20;4.30;;;;;;;16.55;34.21;98831.80;104577;1257;75235;-62
2023/03/31 04:51:44;;;;;;;5.90;3.90;;;;;;;16.52;33.79;98825.29;104347;1251;72116;-62
2023/03/31 04:54:15;;;;;;;4.90;4.10;;;;;;;16.59;34.04;98819.44;104360;1269;74949;-62
2023/03/31 04:56:45;;;;;;;5.20;4.60;;;;;;;16.64;33.72;98817.83;104230;1272;61805;-62
2023/03/31 04:59:14;;;;;;;4.80;3.80;;;;;;;16.65;33.43;98816.84;104263;1269;62500;-64
2023/03/31 05:01:43;;;;;;;6.60;4.50;;;;;;;16.75;33.03;98812.85;104255;1267;76196;-63
2023/03/31 05:04:12;;;;;;;4.80;4.10;;;;;;;16.77;33.24;98809.52;104452;1257;72201;-63
2023/03/31 05:06:41;;;;;;;5.70;4.00;;;;;;;16.77;32.97;98806.31;104318;1263;74110;-65
2023/03/31 05:09:10;;;;;;;6.20;4.20;;;;;;;16.80;32.90;98803.56;104417;1255;60705;-63
2023/03/31 05:11:40;;;;;;;5.40;4.20;;;;;;;16.83;32.87;98802.61;104327;1263;60474;-62
2023/03/31 05:14:09;;;;;;;4.60;3.70;;;;;;;16.91;32.84;98799.37;104328;1253;74505;-62
2023/03/31 05:16:38;;;;;;;4.50;4.10;;;;;;;16.92;32.92;98798.57;104335;1267;70504;-63
2023/03/31 05:19:06;;;;;;;5.40;3.80;;;;;;;16.84;32.74;98798.47;104408;1268;74182;-62
2023/03/31 05:21:36;;;;;;;5.20;3.60;;;;;;;16.83;32.78;98796.60;104197;1275;61768;-62
2023/03/31 05:24:05;;;;;;;3.90;3.40;;;;;;;16.82;32.96;98789.05;104282;1271;62443;-62
2023/03/31 05:26:33;;;;;;;4.50;4.10;;;;;;;16.90;32.74;98790.93;104465;1257;74313;-63
2023/03/31 05:29:04;;;;;;;3.70;3.20;;;;;;;16.96;32.82;98785.44;104389;1254;70734;-62
2023/03/31 05:31:32;;;;;;;4.00;3.60;;;;;;;16.94;32.47;98780.48;104350;1254;74233;-62
2023/03/31 05:34:01;;;;;;;4.10;3.50;;;;;;;16.96;32.82;98773.82;104360;1252;61690;-63
2023/03/31 05:36:31;;;;;;;5.00;3.30;;;;;;;17.01;32.69;98770.39;104444;1253;61623;-61
2023/03/31 05:38:59;;;;;;;5.30;4.00;;;;;;;17.01;32.58;98766.63;104409;1267;74655;-62
2023/03/31 05:41:28;;;;;;;9.20;3.90;;;;;;;17.08;32.66;98766.94;104397;1259;71454;-63
2023/03/31 05:43:56;;;;;;;5.00;3.50;;;;;;;17.09;32.58;98762.22;104430;1256;73644;-64
2023/03/31 05:46:26;;;;;;;4.40;3.40;;;;;;;17.14;32.76;98755.52;104401;1261;61679;-62
2023/03/31 05:48:55;;;;;;;3.90;3.50;;;;;;;17.19;32.82;98754.89;104540;1267;61673;-63
2023/03/31 05:51:24;;;;;;;4.00;3.40;;;;;;;17.21;32.87;98746.97;104788;1253;75410;-62
2023/03/31 05:53:53;;;;;;;3.60;3.30;;;;;;;17.22;32.66;98740.98;104597;1260;70527;-62
2023/03/31 05:56:22;;;;;;;4.70;3.70;;;;;;;17.24;32.97;98738.67;104403;1253;73317;-62
2023/03/31 05:58:51;;;;;;;3.60;3.10;;;;;;;17.25;32.73;98737.03;104431;1256;61683;-62
2023/03/31 06:01:23;;;;;;;3.90;3.40;;;;;;;17.25;32.65;98734.70;104431;1261;61612;-61
2023/03/31 06:03:52;;;;;;;4.50;3.60;;;;;;;17.35;32.39;98735.84;104856;1252;75465;-62
2023/03/31 06:06:21;;;;;;;4.00;3.60;;;;;;;17.42;32.59;98733.49;104705;1253;69953;-63
2023/03/31 06:08:50;;;;;;;4.70;3.70;;;;;;;17.49;32.42;98732.11;104543;1261;73145;-68
2023/03/31 06:11:20;;;;;;;4.10;3.50;;;;;;;17.58;32.38;98731.23;104659;1258;60510;-62
2023/03/31 06:13:48;;;;;;;4.90;4.30;;;;;;;17.60;32.29;98735.80;104484;1258;62649;-62
2023/03/31 06:16:20;;;;;;;3.70;3.30;;;;;;;17.70;32.24;98733.02;104486;1253;74392;-63
2023/03/31 06:18:50;;;;;;;4.80;3.80;;;;;;;17.73;32.08;98733.15;104449;1251;70624;-63
2023/03/31 06:21:20;;;;;;;4.00;3.50;;;;;;;17.76;32.25;98737.05;104700;1256;73048;-63
2023/03/31 06:23:53;;;;;;;4.20;3.10;;;;;;;17.85;32.09;98741.95;104735;1252;61774;-64
2023/03/31 06:26:22;;;;;;;3.80;3.00;;;;;;;17.92;32.00;98735.88;104461;1261;61682;-62
2023/03/31 06:28:50;;;;;;;5.00;3.40;;;;;;;18.03;31.65;98734.74;104646;1251;75881;-62
2023/03/31 06:31:20;;;;;;;3.70;3.20;;;;;;;18.12;31.85;98730.63;104268;1263;69892;-63
2023/03/31 06:33:49;;;;;;;4.40;3.10;;;;;;;18.24;31.79;98724.19;104604;1253;73287;-62
2023/03/31 06:36:20;;;;;;;3.50;3.00;;;;;;;18.39;31.59;98717.55;104384;1268;61820;-62
2023/03/31 06:38:49;;;;;;;3.20;2.90;;;;;;;18.43;31.37;98715.77;104531;1256;61692;-63
2023/03/31 06:41:19;;;;;;;3.70;3.10;;;;;;;18.60;31.44;98717.66;104705;1252;74519;-63
2023/03/31 06:43:47;;;;;;;4.80;3.20;;;;;;;18.54;31.27;98719.97;104493;1264;72053;-63
2023/03/31 06:46:16;;;;;;;3.40;3.00;;;;;;;18.58;31.13;98715.67;104841;1256;73521;-63
2023/03/31 06:48:44;;;;;;;3.90;3.20;;;;;;;18.68;30.94;98711.25;104505;1256;61807;-64
2023/03/31 06:51:13;;;;;;;4.60;3.70;;;;;;;18.74;30.95;98707.27;104636;1252;61689;-63
2023/03/31 06:53:42;;;;;;;5.30;3.20;;;;;;;18.82;30.64;98703.61;104436;1260;75006;-64
2023/03/31 06:56:11;;;;;;;3.40;3.10;;;;;;;18.94;30.59;98699.80;104678;1253;72239;-62
2023/03/31 06:58:41;;;;;;;3.30;3.00;;;;;;;19.02;30.56;98696.05;104457;1257;73941;-63
2023/03/31 07:01:10;;;;;;;3.40;3.10;;;;;;;19.13;30.40;98696.60;104628;1254;61613;-62
2023/03/31 07:03:43;;;;;;;3.30;3.00;;;;;;;19.22;30.53;98691.90;104413;1252;61731;-62
2023/03/31 07:06:11;;;;;;;3.40;3.00;;;;;;;19.29;30.23;98690.84;104725;1257;76125;-63
2023/03/31 07:08:40;;;;;;;3.50;3.10;;;;;;;19.34;30.18;98684.95;104330;1256;70657;-63
2023/03/31 07:11:08;;;;;;;4.20;3.20;;;;;;;19.46;30.55;98676.14;104703;1256;72973;-62
2023/03/31 07:13:41;;;;;;;4.40;2.90;;;;;;;19.54;30.44;98676.26;104551;1252;61733;-62
2023/03/31 07:16:12;;;;;;;3.00;2.60;;;;;;;19.62;30.11;98674.98;104446;1260;61680;-64
2023/03/31 07:18:42;;;;;;;3.80;2.50;;;;;;;19.67;30.27;98675.37;104572;1256;74331;-63
2023/03/31 07:21:11;;;;;;;3.90;3.30;;;;;;;19.77;30.10;98673.73;104754;1256;72005;-64
2023/03/31 07:23:40;;;;;;;4.20;3.40;;;;;;;19.89;29.79;98673.99;104567;1255;73692;-64
2023/03/31 07:26:10;;;;;;;4.40;3.00;;;;;;;20.01;29.79;98676.79;104776;1267;60599;-68
2023/03/31 07:28:39;;;;;;;4.00;3.50;;;;;;;20.11;29.57;98675.42;104539;1254;61594;-65
2023/03/31 07:31:12;;;;;;;4.50;3.20;;;;;;;20.17;29.90;98681.94;104706;1255;74227;-64
2023/03/31 07:33:40;;;;;;;4.50;2.90;;;;;;;20.14;28.95;98678.91;104611;1253;70608;-66
2023/03/31 07:36:09;;;;;;;4.50;3.30;;;;;;;20.21;29.13;98682.48;104516;1253;72881;-69
2023/03/31 07:38:45;;;;;;;3.90;3.50;;;;;;;20.14;29.23;98681.69;104450;1268;61631;-63
2023/03/31 07:41:18;;;;;;;3.60;3.00;;;;;;;20.08;29.13;98679.45;104481;1253;61163;-64
2023/03/31 07:43:47;;;;;;;3.90;3.40;;;;;;;19.51;29.77;98679.35;104541;1252;75228;-63
2023/03/31 07:46:20;;;;;;;5.90;3.40;;;;;;;19.63;30.09;98678.65;104519;1261;70818;-64
2023/03/31 07:48:49;;;;;;;4.90;3.10;;;;;;;20.14;29.33;98675.52;104270;1263;73418;-67
2023/03/31 07:51:21;;;;;;;3.20;2.90;;;;;;;20.03;29.24;98679.73;104404;1272;61737;-64
2023/03/31 07:53:51;;;;;;;4.40;3.70;;;;;;;19.36;29.50;98674.41;104705;1260;61601;-64
2023/03/31 07:56:23;;;;;;;6.90;3.80;;;;;;;19.26;29.82;98671.30;104419;1263;75412;-64
2023/03/31 07:58:52;;;;;;;4.50;3.70;;;;;;;19.60;29.64;98666.79;104589;1253;70153;-64
2023/03/31 08:01:27;;;;;;;3.50;3.10;;;;;;;19.94;29.32;98663.54;104363;1259;74054;-63
2023/03/31 08:03:57;;;;;;;4.40;3.70;;;;;;;19.99;28.88;98659.50;104437;1268;61699;-66
2023/03/31 08:06:27;;;;;;;5.40;3.50;;;;;;;20.03;28.56;98654.64;104383;1252;61705;-63
2023/03/31 08:08:56;;;;;;;3.30;3.00;;;;;;;20.18;28.77;98656.48;104608;1260;74956;-63
2023/03/31 08:11:25;;;;;;;3.60;3.20;;;;;;;20.30;28.73;98654.02;104959;1258;70187;-63
2023/03/31 08:13:54;;;;;;;3.70;3.30;;;;;;;20.36;28.89;98650.07;104278;1256;72851;-63
2023/03/31 08:16:22;;;;;;;3.50;3.10;;;;;;;20.39;28.27;98647.73;104564;1254;61723;-64
2023/03/31 08:18:53;;;;;;;4.00;3.00;;;;;;;20.35;28.47;98641.05;104242;1269;61691;-65
2023/03/31 08:21:21;;;;;;;3.40;2.80;;;;;;;20.18;28.61;98642.05;104259;1255;75968;-64
2023/03/31 08:24:00;;;;;;;4.00;2.90;;;;;;;20.25;29.16;98640.79;104457;1256;70800;-63
2023/03/31 08:26:31;;;;;;;4.80;4.20;;;;;;;20.26;28.61;98635.89;104431;1258;73094;-64
2023/03/31 08:29:00;;;;;;;4.60;3.70;;;;;;;20.33;28.55;98633.26;104236;1267;60515;-64
2023/03/31 08:31:29;;;;;;;7.60;3.70;;;;;;;20.32;28.58;98624.34;104332;1257;61628;-63
2023/03/31 08:33:58;;;;;;;3.50;3.00;;;;;;;20.28;28.85;98622.88;104315;1255;74390;-63
2023/03/31 08:36:28;;;;;;;4.20;3.80;;;;;;;20.31;28.71;98621.92;104337;1256;70483;-63
2023/03/31 08:38:57;;;;;;;4.80;3.90;;;;;;;20.34;28.81;98613.41;104281;1271;74247;-64
2023/03/31 08:41:41;;;;;;;4.00;3.50;;;;;;;20.31;29.12;98609.77;104306;1256;62264;-63
2023/03/31 08:44:14;;;;;;;5.90;4.20;;;;;;;20.35;29.04;98610.63;104362;1274;60708;-63
2023/03/31 08:46:44;;;;;;;4.80;4.30;;;;;;;20.41;28.77;98611.91;104325;1257;74159;-64
2023/03/31 08:49:15;;;;;;;5.50;4.10;;;;;;;20.49;28.77;98614.17;104371;1270;70158;-65
2023/03/31 08:51:49;;;;;;;4.60;4.20;;;;;;;20.54;28.44;98613.73;104887;1254;73442;-63
2023/03/31 08:54:31;;;;;;;5.40;4.90;;;;;;;20.55;28.37;98612.73;105063;1254;61715;-69
2023/03/31 08:57:05;;;;;;;12.10;10.90;;;;;;;20.57;28.80;98611.83;104532;1253;61534;-63
2023/03/31 08:59:34;;;;;;;5.70;5.10;;;;;;;20.61;28.71;98605.33;104300;1266;74665;-63
2023/03/31 09:02:27;;;;;;;5.70;4.50;;;;;;;20.69;28.74;98599.09;104419;1269;71149;-65
2023/03/31 09:05:11;;;;;;;25.50;19.50;;;;;;;20.83;28.37;98598.15;104524;1262;74184;-62
2023/03/31 09:07:52;;;;;;;11.00;9.00;;;;;;;20.88;28.69;98588.54;104840;1254;61589;-62
2023/03/31 09:10:21;;;;;;;8.50;7.60;;;;;;;21.00;28.70;98586.77;104342;1267;61636;-62
2023/03/31 09:13:08;;;;;;;46.60;42.90;;;;;;;21.04;28.23;98587.66;104656;1257;74003;-61
2023/03/31 09:15:39;;;;;;;16.70;14.90;;;;;;;20.99;27.76;98585.86;104468;1253;69998;-61
2023/03/31 09:18:30;;;;;;;26.30;19.30;;;;;;;20.98;28.39;98576.01;104706;1256;73109;-61
2023/03/31 09:21:31;;;;;;;10.40;7.90;;;;;;;21.13;28.27;98571.89;104663;1258;61655;-61
2023/03/31 09:24:08;;;;;;;23.60;21.00;;;;;;;21.23;27.76;98562.91;104402;1258;61578;-60
2023/03/31 09:26:54;;;;;;;11.10;10.00;;;;;;;21.19;27.64;98554.16;104876;1256;74716;-61
2023/03/31 09:29:26;;;;;;;6.40;5.80;;;;;;;21.16;27.39;98550.64;104520;1259;70778;-60
2023/03/31 09:33:17;;;;;;;4.90;3.80;;;;;;;19.97;29.84;98545.22;101645;1292;602691;-60
2023/03/31 09:35:45;;;;;;;11.10;7.60;;;;;;;21.38;27.88;98536.98;104076;1266;61278;-62
2023/03/31 09:38:17;;;;;;;6.00;4.50;;;;;;;21.37;28.09;98535.63;104136;1266;60880;-60
2023/03/31 09:40:45;;;;;;;6.00;3.70;;;;;;;21.37;27.67;98534.91;103831;1267;72712;-61
2023/03/31 09:43:20;;;;;;;4.30;3.90;;;;;;;21.37;28.24;98538.73;103534;1271;70092;-60
2023/03/31 09:45:48;;;;;;;14.10;12.90;;;;;;;21.43;27.79;98538.34;104071;1262;208668;-61
2023/03/31 09:48:37;;;;;;;8.00;7.30;;;;;;;21.44;28.09;98537.02;104416;1260;60455;-62
2023/03/31 09:51:06;;;;;;;5.70;5.20;;;;;;;21.44;28.04;98537.95;104042;1263;61419;-62
2023/03/31 09:53:45;;;;;;;13.90;8.40;;;;;;;21.47;27.28;98537.98;104247;1270;73484;-63
2023/03/31 09:56:54;;;;;;;23.50;21.10;;;;;;;21.53;27.33;98536.61;104219;1273;71218;-63
2023/03/31 09:59:31;;;;;;;22.00;19.80;;;;;;;21.56;26.86;98538.43;103973;1273;74498;-61
2023/03/31 10:02:19;;;;;;;18.90;13.60;;;;;;;21.51;27.02;98540.52;104517;1260;60682;-61
2023/03/31 10:04:48;;;;;;;9.30;7.60;;;;;;;21.51;27.41;98542.77;104076;1270;60837;-63
2023/03/31 10:07:20;;;;;;;35.50;32.30;;;;;;;21.06;27.80;98540.96;104425;1257;74993;-63
2023/03/31 10:09:48;;;;;;;30.70;26.30;;;;;;;20.49;28.72;98542.53;104518;1257;70329;-63
2023/03/31 10:12:24;;;;;;;16.30;13.90;;;;;;;20.90;28.29;98536.13;104685;1260;72727;-60
2023/03/31 10:15:02;;;;;;;12.50;9.90;;;;;;;21.24;27.61;98533.90;104422;1273;60711;-61
2023/03/31 10:17:31;;;;;;;14.60;10.50;;;;;;;21.17;27.62;98529.80;104550;1272;62226;-60
2023/03/31 10:20:37;;;;;;;10.10;7.50;;;;;;;21.16;27.90;98528.82;104186;1257;74282;-60
2023/03/31 10:23:31;;;;;;;8.10;6.10;;;;;;;21.14;28.04;98524.27;104334;1270;71905;-61
2023/03/31 10:26:01;;;;;;;6.90;5.90;;;;;;;21.14;28.03;98521.07;104292;1271;74258;-61
2023/03/31 10:28:31;;;;;;;13.50;11.80;;;;;;;21.11;28.34;98515.69;104339;1269;60884;-61
2023/03/31 10:31:02;;;;;;;12.40;8.20;;;;;;;21.13;28.65;98516.02;104489;1266;60753;-61
2023/03/31 10:33:33;;;;;;;14.40;8.90;;;;;;;21.14;28.52;98513.92;104342;1263;73861;-65
2023/03/31 10:36:25;;;;;;;12.00;6.50;;;;;;;21.22;28.31;98510.45;104361;1263;70997;-60
2023/03/31 10:38:53;;;;;;;6.80;5.50;;;;;;;21.27;28.20;98506.18;104792;1261;74256;-61
2023/03/31 10:41:25;;;;;;;7.80;5.40;;;;;;;21.24;27.92;98503.58;104515;1261;61049;-60
2023/03/31 10:43:54;;;;;;;5.30;4.30;;;;;;;21.25;27.68;98495.36;104330;1275;61170;-61
2023/03/31 10:46:50;;;;;;;6.60;5.50;;;;;;;21.38;27.52;98491.17;104468;1254;74420;-60
2023/03/31 10:49:21;;;;;;;4.10;3.70;;;;;;;21.51;27.23;98485.00;108151;1253;70292;-62
2023/03/31 10:51:57;;;;;;;4.70;3.80;;;;;;;20.88;26.95;98482.27;106277;1257;74975;-62
2023/03/31 10:54:26;;;;;;;3.40;3.10;;;;;;;20.62;27.69;98478.54;104797;1254;61628;-61
2023/03/31 10:56:56;;;;;;;4.00;3.50;;;;;;;21.04;27.08;98474.83;105198;1254;60934;-61
2023/03/31 10:59:32;;;;;;;8.40;3.50;;;;;;;21.15;27.48;98471.63;104977;1259;73693;-61
2023/03/31 11:02:21;;;;;;;4.10;3.70;;;;;;;21.35;26.81;98465.45;104658;1266;69725;-61
2023/03/31 11:05:41;;;;;;;4.50;3.60;;;;;;;21.54;26.74;98459.44;104416;1254;73152;-61
2023/03/31 11:08:19;;;;;;;5.20;4.00;;;;;;;21.68;26.18;98460.70;104423;1261;61588;-61
2023/03/31 11:11:06;;;;;;;4.60;3.40;;;;;;;21.48;26.37;98461.65;104077;1273;60967;-61
2023/03/31 11:14:06;;;;;;;4.40;3.60;;;;;;;21.51;26.48;98459.27;104334;1258;75183;-61
2023/03/31 11:16:50;;;;;;;5.70;3.60;;;;;;;21.60;26.32;98458.85;104994;1259;70829;-61
2023/03/31 11:19:36;;;;;;;4.40;3.50;;;;;;;21.67;26.72;98455.41;104632;1259;73200;-61
2023/03/31 11:22:47;;;;;;;3.80;3.40;;;;;;;21.82;26.46;98452.21;104442;1267;61665;-60
2023/03/31 11:25:41;;;;;;;3.60;3.20;;;;;;;22.00;26.35;98446.85;104559;1257;62214;-60
2023/03/31 11:28:22;;;;;;;4.20;3.00;;;;;;;22.09;26.31;98440.54;104529;1258;74586;-61
2023/03/31 11:31:15;;;;;;;3.30;3.00;;;;;;;21.70;26.90;98441.69;104318;1251;71302;-62
2023/03/31 11:34:12;;;;;;;4.10;3.10;;;;;;;21.70;27.08;98435.29;104474;1266;74238;-61
2023/03/31 11:36:51;;;;;;;4.10;3.20;;;;;;;22.05;25.69;98430.41;104563;1256;60845;-63
2023/03/31 11:39:38;;;;;;;;;;;;;;;21.88;26.14;98431.41;104517;1251;61132;-63
2023/03/31 11:42:25;;;;;;;;;;;;;;;21.34;26.58;98429.98;104785;1254;74604;-65
2023/03/31 11:44:59;;;;;;;3.10;2.60;;;;;;;21.05;27.04;98433.67;104924;1267;69960;-60
2023/03/31 11:47:30;;;;;;;3.20;2.90;;;;;;;20.87;27.00;98427.55;105358;1257;73001;-60
2023/03/31 11:50:04;;;;;;;3.50;3.00;;;;;;;20.85;27.77;98427.22;104816;1257;62283;-63
2023/03/31 11:52:34;;;;;;;4.80;3.30;;;;;;;21.17;27.02;98421.27;104958;1253;61021;-59
2023/03/31 11:55:14;;;;;;;3.20;2.90;;;;;;;21.89;26.16;98414.72;104611;1263;73651;-59
2023/03/31 11:57:53;;;;;;;3.60;3.30;;;;;;;21.95;25.66;98409.58;104550;1260;70275;-60